sensor_id;sensor_type;location;lat;lon;timestamp;P1;durP1;ratioP1;P2;durP2;ratioP2
14837;SDS011;7510;59.296;18.106;2022-10-20T00:01:56;0.90;;;0.70;;
14837;SDS011;7510;59.296;18.106;2022-10-20T00:04:21;4.03;;;0.80;;
14837;SDS011;7510;59.296;18.106;2022-10-20T00:06:47;1.57;;;0.50;;
14837;SDS011;7510;59.296;18.106;2022-10-20T00:09:12;2.50;;;0.70;;
14837;SDS011;7510;59.296;18.106;2022-10-20T00:11:38;4.73;;;0.90;;
14837;SDS011;7510;59.296;18.106;2022-10-20T00:14:03;1.23;;;0.57;;
14837;SDS011;7510;59.296;18.106;2022-10-20T00:16:29;3.23;;;0.67;;
14837;SDS011;7510;59.296;18.106;2022-10-20T00:18:56;2.33;;;0.90;;
14837;SDS011;7510;59.296;18.106;2022-10-20T00:21:23;0.67;;;0.67;;
14837;SDS011;7510;59.296;18.106;2022-10-20T00:23:51;1.07;;;0.70;;
14837;SDS011;7510;59.296;18.106;2022-10-20T00:26:21;3.37;;;1.10;;
14837;SDS011;7510;59.296;18.106;2022-10-20T00:28:50;2.97;;;0.80;;
14837;SDS011;7510;59.296;18.106;2022-10-20T00:31:16;1.20;;;0.80;;
14837;SDS011;7510;59.296;18.106;2022-10-20T00:33:43;4.63;;;1.00;;
14837;SDS011;7510;59.296;18.106;2022-10-20T00:36:10;3.43;;;0.80;;
14837;SDS011;7510;59.296;18.106;2022-10-20T00:38:38;2.70;;;1.13;;
14837;SDS011;7510;59.296;18.106;2022-10-20T00:41:03;4.63;;;0.93;;
14837;SDS011;7510;59.296;18.106;2022-10-20T00:46:17;2.50;;;0.93;;
14837;SDS011;7510;59.296;18.106;2022-10-20T00:48:47;1.20;;;0.80;;
14837;SDS011;7510;59.296;18.106;2022-10-20T00:51:18;3.90;;;0.93;;
14837;SDS011;7510;59.296;18.106;2022-10-20T00:53:47;0.97;;;0.60;;
14837;SDS011;7510;59.296;18.106;2022-10-20T00:56:14;3.43;;;1.10;;
14837;SDS011;7510;59.296;18.106;2022-10-20T00:58:40;2.13;;;1.17;;
14837;SDS011;7510;59.296;18.106;2022-10-20T01:01:06;1.07;;;0.90;;
14837;SDS011;7510;59.296;18.106;2022-10-20T01:03:43;3.60;;;1.17;;
14837;SDS011;7510;59.296;18.106;2022-10-20T01:06:11;1.70;;;1.10;;
14837;SDS011;7510;59.296;18.106;2022-10-20T01:08:37;0.77;;;0.70;;
14837;SDS011;7510;59.296;18.106;2022-10-20T01:13:40;2.63;;;0.90;;
14837;SDS011;7510;59.296;18.106;2022-10-20T01:27:57;3.33;;;0.70;;
14837;SDS011;7510;59.296;18.106;2022-10-20T01:30:36;1.50;;;0.70;;
14837;SDS011;7510;59.296;18.106;2022-10-20T01:43:31;2.90;;;0.60;;
14837;SDS011;7510;59.296;18.106;2022-10-20T01:46:00;1.00;;;0.90;;
14837;SDS011;7510;59.296;18.106;2022-10-20T01:48:28;0.70;;;0.70;;
14837;SDS011;7510;59.296;18.106;2022-10-20T01:50:56;2.50;;;0.80;;
14837;SDS011;7510;59.296;18.106;2022-10-20T01:53:24;8.53;;;1.40;;
14837;SDS011;7510;59.296;18.106;2022-10-20T01:55:50;1.17;;;0.60;;
14837;SDS011;7510;59.296;18.106;2022-10-20T02:00:53;2.07;;;0.67;;
14837;SDS011;7510;59.296;18.106;2022-10-20T02:08:54;2.37;;;0.53;;
14837;SDS011;7510;59.296;18.106;2022-10-20T02:13:56;2.27;;;0.70;;
14837;SDS011;7510;59.296;18.106;2022-10-20T02:16:25;0.83;;;0.80;;
14837;SDS011;7510;59.296;18.106;2022-10-20T02:18:54;1.00;;;0.90;;
14837;SDS011;7510;59.296;18.106;2022-10-20T02:21:20;1.53;;;0.63;;
14837;SDS011;7510;59.296;18.106;2022-10-20T02:23:46;1.20;;;0.73;;
14837;SDS011;7510;59.296;18.106;2022-10-20T02:26:15;6.87;;;1.00;;
14837;SDS011;7510;59.296;18.106;2022-10-20T02:28:52;1.77;;;0.70;;
14837;SDS011;7510;59.296;18.106;2022-10-20T02:31:21;4.67;;;0.63;;
14837;SDS011;7510;59.296;18.106;2022-10-20T02:33:47;0.60;;;0.60;;
14837;SDS011;7510;59.296;18.106;2022-10-20T02:36:16;1.00;;;0.60;;
14837;SDS011;7510;59.296;18.106;2022-10-20T02:38:43;0.40;;;0.40;;
14837;SDS011;7510;59.296;18.106;2022-10-20T02:41:09;1.07;;;0.77;;
14837;SDS011;7510;59.296;18.106;2022-10-20T02:43:35;0.93;;;0.73;;
14837;SDS011;7510;59.296;18.106;2022-10-20T02:46:00;1.07;;;0.63;;
14837;SDS011;7510;59.296;18.106;2022-10-20T02:48:25;1.10;;;0.60;;
14837;SDS011;7510;59.296;18.106;2022-10-20T02:50:51;0.77;;;0.77;;
14837;SDS011;7510;59.296;18.106;2022-10-20T02:53:16;3.03;;;0.70;;
14837;SDS011;7510;59.296;18.106;2022-10-20T02:55:42;0.97;;;0.70;;
14837;SDS011;7510;59.296;18.106;2022-10-20T02:58:08;0.57;;;0.50;;
14837;SDS011;7510;59.296;18.106;2022-10-20T03:00:34;0.57;;;0.43;;
14837;SDS011;7510;59.296;18.106;2022-10-20T03:02:59;0.60;;;0.47;;
14837;SDS011;7510;59.296;18.106;2022-10-20T03:05:25;1.17;;;0.70;;
14837;SDS011;7510;59.296;18.106;2022-10-20T03:07:51;3.90;;;0.60;;
14837;SDS011;7510;59.296;18.106;2022-10-20T03:10:17;0.70;;;0.63;;
14837;SDS011;7510;59.296;18.106;2022-10-20T03:12:42;1.47;;;0.93;;
14837;SDS011;7510;59.296;18.106;2022-10-20T03:15:09;2.87;;;0.63;;
14837;SDS011;7510;59.296;18.106;2022-10-20T03:17:35;2.30;;;0.63;;
14837;SDS011;7510;59.296;18.106;2022-10-20T03:20:00;1.27;;;0.83;;
14837;SDS011;7510;59.296;18.106;2022-10-20T03:22:26;5.13;;;1.00;;
14837;SDS011;7510;59.296;18.106;2022-10-20T03:24:52;1.10;;;0.80;;
14837;SDS011;7510;59.296;18.106;2022-10-20T03:27:17;2.20;;;0.80;;
14837;SDS011;7510;59.296;18.106;2022-10-20T03:29:43;0.93;;;0.53;;
14837;SDS011;7510;59.296;18.106;2022-10-20T03:32:08;0.93;;;0.73;;
14837;SDS011;7510;59.296;18.106;2022-10-20T03:34:34;2.67;;;0.80;;
14837;SDS011;7510;59.296;18.106;2022-10-20T03:37:00;0.77;;;0.70;;
14837;SDS011;7510;59.296;18.106;2022-10-20T03:39:26;0.73;;;0.60;;
14837;SDS011;7510;59.296;18.106;2022-10-20T03:41:52;1.97;;;0.70;;
14837;SDS011;7510;59.296;18.106;2022-10-20T03:44:18;0.90;;;0.70;;
14837;SDS011;7510;59.296;18.106;2022-10-20T03:46:44;1.40;;;0.90;;
14837;SDS011;7510;59.296;18.106;2022-10-20T03:49:10;2.77;;;0.90;;
14837;SDS011;7510;59.296;18.106;2022-10-20T03:51:36;2.47;;;0.90;;
14837;SDS011;7510;59.296;18.106;2022-10-20T03:54:01;0.80;;;0.80;;
14837;SDS011;7510;59.296;18.106;2022-10-20T03:56:28;0.60;;;0.60;;
14837;SDS011;7510;59.296;18.106;2022-10-20T03:58:53;1.73;;;0.70;;
14837;SDS011;7510;59.296;18.106;2022-10-20T04:01:19;0.70;;;0.70;;
14837;SDS011;7510;59.296;18.106;2022-10-20T04:03:47;4.63;;;1.00;;
14837;SDS011;7510;59.296;18.106;2022-10-20T04:06:12;3.40;;;0.77;;
14837;SDS011;7510;59.296;18.106;2022-10-20T04:08:39;4.67;;;1.90;;
14837;SDS011;7510;59.296;18.106;2022-10-20T04:11:05;1.57;;;1.00;;
14837;SDS011;7510;59.296;18.106;2022-10-20T04:13:30;1.17;;;0.87;;
14837;SDS011;7510;59.296;18.106;2022-10-20T04:15:56;2.50;;;1.00;;
14837;SDS011;7510;59.296;18.106;2022-10-20T04:18:21;1.00;;;0.70;;
14837;SDS011;7510;59.296;18.106;2022-10-20T04:20:47;2.27;;;1.10;;
14837;SDS011;7510;59.296;18.106;2022-10-20T04:23:12;2.43;;;0.83;;
14837;SDS011;7510;59.296;18.106;2022-10-20T04:25:42;1.93;;;0.70;;
14837;SDS011;7510;59.296;18.106;2022-10-20T04:28:13;2.77;;;0.90;;
14837;SDS011;7510;59.296;18.106;2022-10-20T04:30:40;1.03;;;0.57;;
14837;SDS011;7510;59.296;18.106;2022-10-20T04:33:06;4.53;;;0.73;;
14837;SDS011;7510;59.296;18.106;2022-10-20T04:35:31;0.83;;;0.83;;
14837;SDS011;7510;59.296;18.106;2022-10-20T04:37:57;0.60;;;0.50;;
14837;SDS011;7510;59.296;18.106;2022-10-20T04:40:22;0.50;;;0.50;;
14837;SDS011;7510;59.296;18.106;2022-10-20T04:42:48;2.87;;;0.93;;
14837;SDS011;7510;59.296;18.106;2022-10-20T04:45:14;1.97;;;0.40;;
14837;SDS011;7510;59.296;18.106;2022-10-20T04:47:40;4.90;;;1.00;;
14837;SDS011;7510;59.296;18.106;2022-10-20T04:50:05;3.43;;;0.73;;
14837;SDS011;7510;59.296;18.106;2022-10-20T04:52:31;2.40;;;0.90;;
14837;SDS011;7510;59.296;18.106;2022-10-20T04:54:56;3.67;;;0.73;;
14837;SDS011;7510;59.296;18.106;2022-10-20T04:57:22;0.80;;;0.67;;
14837;SDS011;7510;59.296;18.106;2022-10-20T04:59:47;0.87;;;0.67;;
14837;SDS011;7510;59.296;18.106;2022-10-20T05:02:13;1.50;;;0.97;;
14837;SDS011;7510;59.296;18.106;2022-10-20T05:04:38;1.60;;;0.57;;
14837;SDS011;7510;59.296;18.106;2022-10-20T05:07:04;3.80;;;0.70;;
14837;SDS011;7510;59.296;18.106;2022-10-20T05:09:30;2.67;;;0.70;;
14837;SDS011;7510;59.296;18.106;2022-10-20T05:11:57;3.90;;;0.60;;
14837;SDS011;7510;59.296;18.106;2022-10-20T05:14:24;4.50;;;1.10;;
14837;SDS011;7510;59.296;18.106;2022-10-20T05:16:50;3.73;;;1.20;;
14837;SDS011;7510;59.296;18.106;2022-10-20T05:19:16;0.60;;;0.53;;
14837;SDS011;7510;59.296;18.106;2022-10-20T05:21:42;2.20;;;0.60;;
14837;SDS011;7510;59.296;18.106;2022-10-20T05:24:10;5.10;;;0.80;;
14837;SDS011;7510;59.296;18.106;2022-10-20T05:26:37;1.23;;;0.60;;
14837;SDS011;7510;59.296;18.106;2022-10-20T05:29:03;2.90;;;0.93;;
14837;SDS011;7510;59.296;18.106;2022-10-20T05:31:31;0.60;;;0.40;;
14837;SDS011;7510;59.296;18.106;2022-10-20T05:34:00;0.80;;;0.60;;
14837;SDS011;7510;59.296;18.106;2022-10-20T05:36:26;1.03;;;0.70;;
14837;SDS011;7510;59.296;18.106;2022-10-20T05:38:52;2.60;;;0.90;;
14837;SDS011;7510;59.296;18.106;2022-10-20T05:41:26;1.13;;;0.70;;
14837;SDS011;7510;59.296;18.106;2022-10-20T05:43:57;5.23;;;0.90;;
14837;SDS011;7510;59.296;18.106;2022-10-20T05:46:25;0.70;;;0.57;;
14837;SDS011;7510;59.296;18.106;2022-10-20T05:48:53;2.90;;;0.90;;
14837;SDS011;7510;59.296;18.106;2022-10-20T05:51:21;4.40;;;0.97;;
14837;SDS011;7510;59.296;18.106;2022-10-20T05:53:50;6.13;;;1.17;;
14837;SDS011;7510;59.296;18.106;2022-10-20T05:56:17;3.80;;;1.03;;
14837;SDS011;7510;59.296;18.106;2022-10-20T05:58:44;1.73;;;1.07;;
14837;SDS011;7510;59.296;18.106;2022-10-20T06:01:15;1.93;;;1.20;;
14837;SDS011;7510;59.296;18.106;2022-10-20T06:03:45;5.70;;;1.33;;
14837;SDS011;7510;59.296;18.106;2022-10-20T06:06:15;6.17;;;1.53;;
14837;SDS011;7510;59.296;18.106;2022-10-20T06:08:43;6.93;;;1.63;;
14837;SDS011;7510;59.296;18.106;2022-10-20T06:11:10;5.03;;;1.70;;
14837;SDS011;7510;59.296;18.106;2022-10-20T06:13:37;3.77;;;1.60;;
14837;SDS011;7510;59.296;18.106;2022-10-20T06:18:36;2.23;;;1.70;;
14837;SDS011;7510;59.296;18.106;2022-10-20T06:21:05;9.40;;;1.80;;
14837;SDS011;7510;59.296;18.106;2022-10-20T06:23:34;6.10;;;1.83;;
14837;SDS011;7510;59.296;18.106;2022-10-20T06:26:03;15.93;;;3.80;;
14837;SDS011;7510;59.296;18.106;2022-10-20T06:28:31;3.63;;;1.60;;
14837;SDS011;7510;59.296;18.106;2022-10-20T06:30:57;5.23;;;1.77;;
14837;SDS011;7510;59.296;18.106;2022-10-20T06:33:23;4.70;;;1.87;;
14837;SDS011;7510;59.296;18.106;2022-10-20T06:35:50;6.00;;;1.37;;
14837;SDS011;7510;59.296;18.106;2022-10-20T06:38:15;5.80;;;1.70;;
14837;SDS011;7510;59.296;18.106;2022-10-20T06:40:41;1.67;;;1.30;;
14837;SDS011;7510;59.296;18.106;2022-10-20T06:43:06;1.97;;;1.00;;
14837;SDS011;7510;59.296;18.106;2022-10-20T06:45:32;2.10;;;1.10;;
14837;SDS011;7510;59.296;18.106;2022-10-20T06:47:57;2.77;;;0.80;;
14837;SDS011;7510;59.296;18.106;2022-10-20T06:50:23;2.90;;;1.23;;
14837;SDS011;7510;59.296;18.106;2022-10-20T06:52:48;3.17;;;0.90;;
14837;SDS011;7510;59.296;18.106;2022-10-20T06:55:14;3.53;;;0.93;;
14837;SDS011;7510;59.296;18.106;2022-10-20T06:57:39;4.85;;;1.02;;
14837;SDS011;7510;59.296;18.106;2022-10-20T07:00:06;3.78;;;1.13;;
14837;SDS011;7510;59.296;18.106;2022-10-20T07:02:32;5.63;;;2.22;;
14837;SDS011;7510;59.296;18.106;2022-10-20T07:04:58;3.75;;;1.27;;
14837;SDS011;7510;59.296;18.106;2022-10-20T07:07:23;2.15;;;1.10;;
14837;SDS011;7510;59.296;18.106;2022-10-20T07:09:49;3.85;;;1.10;;
14837;SDS011;7510;59.296;18.106;2022-10-20T07:12:14;4.00;;;1.17;;
14837;SDS011;7510;59.296;18.106;2022-10-20T07:14:39;3.78;;;1.40;;
14837;SDS011;7510;59.296;18.106;2022-10-20T07:17:05;3.70;;;1.42;;
14837;SDS011;7510;59.296;18.106;2022-10-20T07:19:30;9.88;;;2.03;;
14837;SDS011;7510;59.296;18.106;2022-10-20T07:21:56;4.45;;;1.70;;
14837;SDS011;7510;59.296;18.106;2022-10-20T07:24:21;2.40;;;1.48;;
14837;SDS011;7510;59.296;18.106;2022-10-20T07:26:47;3.13;;;1.55;;
14837;SDS011;7510;59.296;18.106;2022-10-20T07:29:12;4.85;;;1.63;;
14837;SDS011;7510;59.296;18.106;2022-10-20T07:31:40;4.57;;;1.58;;
14837;SDS011;7510;59.296;18.106;2022-10-20T07:34:08;2.63;;;1.30;;
14837;SDS011;7510;59.296;18.106;2022-10-20T07:36:35;6.22;;;1.88;;
14837;SDS011;7510;59.296;18.106;2022-10-20T07:39:02;4.50;;;1.90;;
14837;SDS011;7510;59.296;18.106;2022-10-20T07:41:29;2.20;;;1.80;;
14837;SDS011;7510;59.296;18.106;2022-10-20T07:43:56;2.83;;;1.70;;
14837;SDS011;7510;59.296;18.106;2022-10-20T07:46:22;4.28;;;1.60;;
14837;SDS011;7510;59.296;18.106;2022-10-20T07:48:48;1.38;;;1.20;;
14837;SDS011;7510;59.296;18.106;2022-10-20T07:53:53;6.07;;;1.30;;
14837;SDS011;7510;59.296;18.106;2022-10-20T07:56:31;4.55;;;1.33;;
14837;SDS011;7510;59.296;18.106;2022-10-20T07:58:59;0.95;;;0.70;;
14837;SDS011;7510;59.296;18.106;2022-10-20T08:01:25;3.33;;;0.80;;
14837;SDS011;7510;59.296;18.106;2022-10-20T08:03:50;2.00;;;0.95;;
14837;SDS011;7510;59.296;18.106;2022-10-20T08:06:16;2.53;;;0.93;;
14837;SDS011;7510;59.296;18.106;2022-10-20T08:08:42;5.05;;;1.40;;
14837;SDS011;7510;59.296;18.106;2022-10-20T08:11:07;1.85;;;0.70;;
14837;SDS011;7510;59.296;18.106;2022-10-20T08:13:33;1.58;;;0.75;;
14837;SDS011;7510;59.296;18.106;2022-10-20T08:15:58;2.45;;;0.80;;
14837;SDS011;7510;59.296;18.106;2022-10-20T08:18:24;0.85;;;0.73;;
14837;SDS011;7510;59.296;18.106;2022-10-20T08:20:50;0.77;;;0.70;;
14837;SDS011;7510;59.296;18.106;2022-10-20T08:23:16;1.27;;;0.60;;
14837;SDS011;7510;59.296;18.106;2022-10-20T08:25:43;8.77;;;1.80;;
14837;SDS011;7510;59.296;18.106;2022-10-20T08:28:08;1.70;;;0.80;;
14837;SDS011;7510;59.296;18.106;2022-10-20T08:30:34;3.53;;;1.13;;
14837;SDS011;7510;59.296;18.106;2022-10-20T08:33:00;1.13;;;0.65;;
14837;SDS011;7510;59.296;18.106;2022-10-20T08:35:25;1.02;;;0.68;;
14837;SDS011;7510;59.296;18.106;2022-10-20T08:37:51;5.55;;;1.00;;
14837;SDS011;7510;59.296;18.106;2022-10-20T08:40:19;2.13;;;0.85;;
14837;SDS011;7510;59.296;18.106;2022-10-20T08:42:48;3.33;;;0.77;;
14837;SDS011;7510;59.296;18.106;2022-10-20T08:45:15;0.98;;;0.88;;
14837;SDS011;7510;59.296;18.106;2022-10-20T08:47:49;1.52;;;0.50;;
14837;SDS011;7510;59.296;18.106;2022-10-20T08:50:18;1.00;;;0.50;;
14837;SDS011;7510;59.296;18.106;2022-10-20T08:52:46;15.25;;;1.67;;
14837;SDS011;7510;59.296;18.106;2022-10-20T08:57:51;3.17;;;0.50;;
14837;SDS011;7510;59.296;18.106;2022-10-20T09:00:22;3.13;;;0.82;;
14837;SDS011;7510;59.296;18.106;2022-10-20T09:02:48;2.63;;;0.80;;
14837;SDS011;7510;59.296;18.106;2022-10-20T09:05:24;0.90;;;0.60;;
14837;SDS011;7510;59.296;18.106;2022-10-20T09:07:54;2.22;;;0.68;;
14837;SDS011;7510;59.296;18.106;2022-10-20T09:12:54;3.38;;;0.55;;
14837;SDS011;7510;59.296;18.106;2022-10-20T09:15:20;1.98;;;0.90;;
14837;SDS011;7510;59.296;18.106;2022-10-20T09:18:05;5.47;;;1.02;;
14837;SDS011;7510;59.296;18.106;2022-10-20T09:20:50;1.88;;;0.63;;
14837;SDS011;7510;59.296;18.106;2022-10-20T09:23:22;6.22;;;2.38;;
14837;SDS011;7510;59.296;18.106;2022-10-20T09:25:52;2.85;;;0.82;;
14837;SDS011;7510;59.296;18.106;2022-10-20T09:28:21;1.20;;;0.75;;
14837;SDS011;7510;59.296;18.106;2022-10-20T09:30:51;1.52;;;1.00;;
14837;SDS011;7510;59.296;18.106;2022-10-20T09:33:28;2.45;;;0.82;;
14837;SDS011;7510;59.296;18.106;2022-10-20T09:36:09;2.97;;;0.90;;
14837;SDS011;7510;59.296;18.106;2022-10-20T09:38:40;5.43;;;1.00;;
14837;SDS011;7510;59.296;18.106;2022-10-20T09:41:13;0.85;;;0.80;;
14837;SDS011;7510;59.296;18.106;2022-10-20T09:44:01;2.83;;;0.82;;
14837;SDS011;7510;59.296;18.106;2022-10-20T09:46:42;1.65;;;1.15;;
14837;SDS011;7510;59.296;18.106;2022-10-20T09:52:02;5.68;;;1.17;;
14837;SDS011;7510;59.296;18.106;2022-10-20T09:54:44;0.85;;;0.80;;
14837;SDS011;7510;59.296;18.106;2022-10-20T09:57:15;1.83;;;1.17;;
14837;SDS011;7510;59.296;18.106;2022-10-20T09:59:46;2.42;;;0.63;;
14837;SDS011;7510;59.296;18.106;2022-10-20T10:04:46;2.72;;;1.02;;
14837;SDS011;7510;59.296;18.106;2022-10-20T10:13:01;2.05;;;1.08;;
14837;SDS011;7510;59.296;18.106;2022-10-20T10:15:29;0.50;;;0.40;;
14837;SDS011;7510;59.296;18.106;2022-10-20T10:17:57;0.80;;;0.63;;
14837;SDS011;7510;59.296;18.106;2022-10-20T10:23:05;0.45;;;0.45;;
14837;SDS011;7510;59.296;18.106;2022-10-20T10:25:45;1.58;;;0.70;;
14837;SDS011;7510;59.296;18.106;2022-10-20T10:28:19;2.60;;;1.05;;
14837;SDS011;7510;59.296;18.106;2022-10-20T10:30:45;2.63;;;0.53;;
14837;SDS011;7510;59.296;18.106;2022-10-20T10:33:24;1.83;;;0.77;;
14837;SDS011;7510;59.296;18.106;2022-10-20T10:35:52;0.43;;;0.30;;
14837;SDS011;7510;59.296;18.106;2022-10-20T10:38:17;4.33;;;0.70;;
14837;SDS011;7510;59.296;18.106;2022-10-20T10:50:59;1.43;;;0.50;;
14837;SDS011;7510;59.296;18.106;2022-10-20T10:58:57;0.80;;;0.53;;
14837;SDS011;7510;59.296;18.106;2022-10-20T11:07:08;0.77;;;0.50;;
14837;SDS011;7510;59.296;18.106;2022-10-20T11:12:45;0.67;;;0.40;;
14837;SDS011;7510;59.296;18.106;2022-10-20T11:15:23;1.00;;;0.50;;
14837;SDS011;7510;59.296;18.106;2022-10-20T11:18:15;0.83;;;0.50;;
14837;SDS011;7510;59.296;18.106;2022-10-20T11:26:49;2.73;;;0.77;;
14837;SDS011;7510;59.296;18.106;2022-10-20T11:40:31;2.50;;;0.77;;
14837;SDS011;7510;59.296;18.106;2022-10-20T11:43:15;4.30;;;0.70;;
14837;SDS011;7510;59.296;18.106;2022-10-20T11:45:53;0.97;;;0.70;;
14837;SDS011;7510;59.296;18.106;2022-10-20T11:51:52;1.90;;;0.43;;
14837;SDS011;7510;59.296;18.106;2022-10-20T12:15:58;1.57;;;0.60;;
14837;SDS011;7510;59.296;18.106;2022-10-20T12:18:30;1.20;;;0.67;;
14837;SDS011;7510;59.296;18.106;2022-10-20T12:28:59;7.43;;;0.90;;
14837;SDS011;7510;59.296;18.106;2022-10-20T12:34:37;2.07;;;0.70;;
14837;SDS011;7510;59.296;18.106;2022-10-20T12:37:47;0.57;;;0.50;;
14837;SDS011;7510;59.296;18.106;2022-10-20T12:42:55;4.83;;;0.70;;
14837;SDS011;7510;59.296;18.106;2022-10-20T12:45:23;3.57;;;0.60;;
14837;SDS011;7510;59.296;18.106;2022-10-20T12:47:56;4.87;;;1.03;;
14837;SDS011;7510;59.296;18.106;2022-10-20T12:53:43;0.83;;;0.57;;
14837;SDS011;7510;59.296;18.106;2022-10-20T12:55:44;2.10;;;0.50;;
14837;SDS011;7510;59.296;18.106;2022-10-20T13:05:55;3.10;;;0.67;;
14837;SDS011;7510;59.296;18.106;2022-10-20T13:08:23;1.30;;;0.50;;
14837;SDS011;7510;59.296;18.106;2022-10-20T13:10:51;0.33;;;0.33;;
14837;SDS011;7510;59.296;18.106;2022-10-20T13:15:46;0.50;;;0.50;;
14837;SDS011;7510;59.296;18.106;2022-10-20T13:18:21;4.57;;;0.73;;
14837;SDS011;7510;59.296;18.106;2022-10-20T13:20:52;1.77;;;0.90;;
14837;SDS011;7510;59.296;18.106;2022-10-20T13:23:47;3.03;;;0.80;;
14837;SDS011;7510;59.296;18.106;2022-10-20T13:26:37;1.13;;;0.60;;
14837;SDS011;7510;59.296;18.106;2022-10-20T13:29:12;0.70;;;0.50;;
14837;SDS011;7510;59.296;18.106;2022-10-20T13:31:50;0.73;;;0.47;;
14837;SDS011;7510;59.296;18.106;2022-10-20T13:37:54;1.80;;;0.70;;
14837;SDS011;7510;59.296;18.106;2022-10-20T13:45:31;4.07;;;0.93;;
14837;SDS011;7510;59.296;18.106;2022-10-20T13:51:12;1.90;;;0.60;;
14837;SDS011;7510;59.296;18.106;2022-10-20T13:53:44;1.13;;;0.60;;
14837;SDS011;7510;59.296;18.106;2022-10-20T13:58:58;1.23;;;0.57;;
14837;SDS011;7510;59.296;18.106;2022-10-20T14:01:29;1.63;;;0.50;;
14837;SDS011;7510;59.296;18.106;2022-10-20T14:03:56;2.20;;;0.40;;
14837;SDS011;7510;59.296;18.106;2022-10-20T14:09:20;0.43;;;0.43;;
14837;SDS011;7510;59.296;18.106;2022-10-20T14:11:51;0.70;;;0.30;;
14837;SDS011;7510;59.296;18.106;2022-10-20T14:14:24;2.33;;;0.60;;
14837;SDS011;7510;59.296;18.106;2022-10-20T14:16:57;2.50;;;0.63;;
14837;SDS011;7510;59.296;18.106;2022-10-20T14:19:29;0.40;;;0.40;;
14837;SDS011;7510;59.296;18.106;2022-10-20T14:21:58;1.70;;;0.77;;
14837;SDS011;7510;59.296;18.106;2022-10-20T14:24:46;5.60;;;1.60;;
14837;SDS011;7510;59.296;18.106;2022-10-20T14:27:16;0.57;;;0.57;;
14837;SDS011;7510;59.296;18.106;2022-10-20T14:29:44;1.80;;;0.73;;
14837;SDS011;7510;59.296;18.106;2022-10-20T14:32:20;2.40;;;0.50;;
14837;SDS011;7510;59.296;18.106;2022-10-20T14:40:34;1.37;;;0.57;;
14837;SDS011;7510;59.296;18.106;2022-10-20T14:43:05;2.63;;;0.80;;
14837;SDS011;7510;59.296;18.106;2022-10-20T14:45:37;3.57;;;0.80;;
14837;SDS011;7510;59.296;18.106;2022-10-20T14:48:03;4.07;;;0.87;;
14837;SDS011;7510;59.296;18.106;2022-10-20T14:53:14;2.07;;;1.07;;
14837;SDS011;7510;59.296;18.106;2022-10-20T14:55:52;8.37;;;1.00;;
14837;SDS011;7510;59.296;18.106;2022-10-20T15:04:05;3.63;;;1.20;;
14837;SDS011;7510;59.296;18.106;2022-10-20T15:06:40;2.57;;;0.90;;
14837;SDS011;7510;59.296;18.106;2022-10-20T15:09:15;2.83;;;1.27;;
14837;SDS011;7510;59.296;18.106;2022-10-20T15:11:43;4.40;;;1.00;;
14837;SDS011;7510;59.296;18.106;2022-10-20T15:14:15;2.93;;;1.27;;
14837;SDS011;7510;59.296;18.106;2022-10-20T15:16:42;6.97;;;1.20;;
14837;SDS011;7510;59.296;18.106;2022-10-20T15:19:11;1.77;;;1.40;;
14837;SDS011;7510;59.296;18.106;2022-10-20T15:21:36;2.43;;;1.07;;
14837;SDS011;7510;59.296;18.106;2022-10-20T15:24:01;3.60;;;1.47;;
14837;SDS011;7510;59.296;18.106;2022-10-20T15:26:27;8.00;;;1.43;;
14837;SDS011;7510;59.296;18.106;2022-10-20T15:28:52;5.33;;;1.70;;
14837;SDS011;7510;59.296;18.106;2022-10-20T15:31:22;1.20;;;1.10;;
14837;SDS011;7510;59.296;18.106;2022-10-20T15:33:49;1.70;;;1.10;;
14837;SDS011;7510;59.296;18.106;2022-10-20T15:36:20;1.40;;;0.77;;
14837;SDS011;7510;59.296;18.106;2022-10-20T15:38:50;3.80;;;1.20;;
14837;SDS011;7510;59.296;18.106;2022-10-20T15:41:20;3.23;;;1.13;;
14837;SDS011;7510;59.296;18.106;2022-10-20T15:43:47;2.10;;;1.40;;
14837;SDS011;7510;59.296;18.106;2022-10-20T15:46:14;6.33;;;1.60;;
14837;SDS011;7510;59.296;18.106;2022-10-20T15:48:41;4.00;;;1.30;;
14837;SDS011;7510;59.296;18.106;2022-10-20T15:51:11;3.13;;;1.57;;
14837;SDS011;7510;59.296;18.106;2022-10-20T15:53:43;2.37;;;1.43;;
14837;SDS011;7510;59.296;18.106;2022-10-20T15:56:11;5.37;;;1.80;;
14837;SDS011;7510;59.296;18.106;2022-10-20T15:58:36;5.00;;;1.47;;
14837;SDS011;7510;59.296;18.106;2022-10-20T16:01:01;3.40;;;1.63;;
14837;SDS011;7510;59.296;18.106;2022-10-20T16:03:27;3.83;;;1.70;;
14837;SDS011;7510;59.296;18.106;2022-10-20T16:05:52;2.63;;;1.30;;
14837;SDS011;7510;59.296;18.106;2022-10-20T16:08:18;10.20;;;1.70;;
14837;SDS011;7510;59.296;18.106;2022-10-20T16:10:43;6.80;;;1.83;;
14837;SDS011;7510;59.296;18.106;2022-10-20T16:13:09;8.63;;;1.90;;
14837;SDS011;7510;59.296;18.106;2022-10-20T16:15:35;8.93;;;2.13;;
14837;SDS011;7510;59.296;18.106;2022-10-20T16:18:01;4.97;;;1.87;;
14837;SDS011;7510;59.296;18.106;2022-10-20T16:20:26;3.80;;;1.70;;
14837;SDS011;7510;59.296;18.106;2022-10-20T16:22:52;8.00;;;2.40;;
14837;SDS011;7510;59.296;18.106;2022-10-20T16:25:17;9.37;;;2.33;;
14837;SDS011;7510;59.296;18.106;2022-10-20T16:27:43;8.63;;;1.50;;
14837;SDS011;7510;59.296;18.106;2022-10-20T16:30:08;5.27;;;1.97;;
14837;SDS011;7510;59.296;18.106;2022-10-20T16:32:34;8.07;;;1.90;;
14837;SDS011;7510;59.296;18.106;2022-10-20T16:35:01;6.67;;;1.90;;
14837;SDS011;7510;59.296;18.106;2022-10-20T16:37:28;8.33;;;2.90;;
14837;SDS011;7510;59.296;18.106;2022-10-20T16:39:54;6.10;;;2.40;;
14837;SDS011;7510;59.296;18.106;2022-10-20T16:42:20;5.60;;;1.90;;
14837;SDS011;7510;59.296;18.106;2022-10-20T16:44:45;6.20;;;1.93;;
14837;SDS011;7510;59.296;18.106;2022-10-20T16:47:10;6.83;;;2.17;;
14837;SDS011;7510;59.296;18.106;2022-10-20T16:49:37;4.30;;;1.90;;
14837;SDS011;7510;59.296;18.106;2022-10-20T16:52:03;8.63;;;1.70;;
14837;SDS011;7510;59.296;18.106;2022-10-20T16:54:28;4.43;;;1.80;;
14837;SDS011;7510;59.296;18.106;2022-10-20T16:56:54;11.83;;;3.27;;
14837;SDS011;7510;59.296;18.106;2022-10-20T16:59:20;7.23;;;2.27;;
14837;SDS011;7510;59.296;18.106;2022-10-20T17:01:45;13.00;;;2.30;;
14837;SDS011;7510;59.296;18.106;2022-10-20T17:04:11;7.73;;;1.77;;
14837;SDS011;7510;59.296;18.106;2022-10-20T17:06:36;7.87;;;1.90;;
14837;SDS011;7510;59.296;18.106;2022-10-20T17:09:02;5.13;;;1.93;;
14837;SDS011;7510;59.296;18.106;2022-10-20T17:11:29;7.13;;;1.90;;
14837;SDS011;7510;59.296;18.106;2022-10-20T17:13:56;7.97;;;2.23;;
14837;SDS011;7510;59.296;18.106;2022-10-20T17:16:29;4.90;;;2.03;;
14837;SDS011;7510;59.296;18.106;2022-10-20T17:18:57;2.37;;;1.50;;
14837;SDS011;7510;59.296;18.106;2022-10-20T17:21:24;2.60;;;1.83;;
14837;SDS011;7510;59.296;18.106;2022-10-20T17:23:50;3.87;;;1.90;;
14837;SDS011;7510;59.296;18.106;2022-10-20T17:26:17;6.60;;;1.67;;
14837;SDS011;7510;59.296;18.106;2022-10-20T17:28:47;11.37;;;2.10;;
14837;SDS011;7510;59.296;18.106;2022-10-20T17:31:14;7.90;;;2.03;;
14837;SDS011;7510;59.296;18.106;2022-10-20T17:33:41;8.33;;;2.50;;
14837;SDS011;7510;59.296;18.106;2022-10-20T17:36:07;5.83;;;2.23;;
14837;SDS011;7510;59.296;18.106;2022-10-20T17:38:33;7.30;;;3.13;;
14837;SDS011;7510;59.296;18.106;2022-10-20T17:41:03;2.83;;;1.73;;
14837;SDS011;7510;59.296;18.106;2022-10-20T17:43:29;6.70;;;2.40;;
14837;SDS011;7510;59.296;18.106;2022-10-20T17:45:56;7.03;;;2.37;;
14837;SDS011;7510;59.296;18.106;2022-10-20T17:48:22;4.23;;;2.30;;
14837;SDS011;7510;59.296;18.106;2022-10-20T17:50:59;7.03;;;2.53;;
14837;SDS011;7510;59.296;18.106;2022-10-20T17:53:28;4.80;;;2.40;;
14837;SDS011;7510;59.296;18.106;2022-10-20T17:55:58;2.63;;;2.00;;
14837;SDS011;7510;59.296;18.106;2022-10-20T17:58:25;4.70;;;2.20;;
14837;SDS011;7510;59.296;18.106;2022-10-20T18:00:51;4.07;;;1.93;;
14837;SDS011;7510;59.296;18.106;2022-10-20T18:03:16;7.73;;;2.60;;